createdAt,value
2022-09-10T00:00:55.989Z,1.25
2022-09-10T00:04:04.009Z,0.90
2022-09-10T00:07:06.428Z,1.03
2022-09-10T00:10:08.903Z,1.00
2022-09-10T00:13:12.993Z,1.00
2022-09-10T00:16:19.209Z,0.93
2022-09-10T00:19:22.665Z,0.98
2022-09-10T00:22:25.102Z,1.02
2022-09-10T00:25:31.857Z,1.00
2022-09-10T00:28:34.189Z,1.30
2022-09-10T00:31:37.676Z,1.08
2022-09-10T00:34:40.187Z,1.00
2022-09-10T00:37:42.828Z,1.05
2022-09-10T00:40:45.690Z,0.90
2022-09-10T00:44:29.865Z,0.77
2022-09-10T00:47:37.844Z,1.05
2022-09-10T00:50:43.735Z,0.82
2022-09-10T00:53:46.504Z,1.15
2022-09-10T00:56:51.591Z,1.10
2022-09-10T01:00:07.146Z,0.73
2022-09-10T01:03:12.588Z,1.52
2022-09-10T01:06:15.900Z,1.10
2022-09-10T01:09:20.796Z,0.98
2022-09-10T01:12:46.726Z,0.90
2022-09-10T01:16:39.696Z,1.00
2022-09-10T01:20:09.352Z,0.80
2022-09-10T01:23:41.806Z,0.85
2022-09-10T01:27:18.366Z,1.27
2022-09-10T01:30:26.755Z,1.10
2022-09-10T01:33:43.730Z,0.90
2022-09-10T01:36:52.687Z,1.25
2022-09-10T01:39:57.299Z,0.93
2022-09-10T01:43:06.578Z,0.98
2022-09-10T01:46:39.724Z,1.10
2022-09-10T01:50:13.157Z,0.80
2022-09-10T01:53:24.450Z,0.90
2022-09-10T01:56:26.949Z,1.00
2022-09-10T01:59:42.288Z,0.80
2022-09-10T02:02:56.198Z,0.93
2022-09-10T02:06:07.652Z,1.20
2022-09-10T02:09:13.625Z,0.88
2022-09-10T02:12:21.360Z,0.90
2022-09-10T02:15:29.864Z,0.68
2022-09-10T02:18:45.989Z,0.85
2022-09-10T02:21:49.550Z,0.90
2022-09-10T02:24:52.817Z,0.80
2022-09-10T02:27:56.395Z,0.80
2022-09-10T02:30:58.347Z,0.97
2022-09-10T02:34:03.631Z,0.85
2022-09-10T02:43:14.615Z,0.80
2022-09-10T02:46:17.083Z,0.90
2022-09-10T02:49:21.247Z,1.00
2022-09-10T02:52:25.047Z,1.10
2022-09-10T02:55:29.890Z,1.13
2022-09-10T02:58:33.623Z,0.88
2022-09-10T03:01:39.165Z,0.75
2022-09-10T03:04:44.337Z,0.70
2022-09-10T03:07:46.336Z,0.95
2022-09-10T03:10:48.898Z,0.95
2022-09-10T03:13:51.367Z,0.95
2022-09-10T03:16:54.283Z,1.15
2022-09-10T03:20:00.338Z,1.00
2022-09-10T03:23:05.765Z,0.80
2022-09-10T03:26:09.071Z,0.70
2022-09-10T03:32:15.897Z,0.80
2022-09-10T03:35:18.736Z,0.80
2022-09-10T03:38:20.876Z,1.02
2022-09-10T03:41:24.247Z,0.82
2022-09-10T03:44:27.452Z,1.00
2022-09-10T03:47:29.972Z,0.70
2022-09-10T03:50:32.025Z,0.70
2022-09-10T03:53:34.372Z,0.60
2022-09-10T03:56:37.144Z,0.70
2022-09-10T03:59:41.317Z,0.70
2022-09-10T04:02:46.997Z,0.80
2022-09-10T04:05:50.710Z,0.80
2022-09-10T04:08:54.348Z,0.70
2022-09-10T04:12:01.115Z,0.88
2022-09-10T04:15:05.984Z,0.70
2022-09-10T04:18:08.887Z,0.70
2022-09-10T04:21:10.882Z,0.80
2022-09-10T04:24:15.942Z,0.77
2022-09-10T04:27:18.393Z,0.90
2022-09-10T04:30:20.634Z,0.70
2022-09-10T04:33:25.227Z,0.90
2022-09-10T04:36:29.647Z,0.90
2022-09-10T04:39:32.854Z,0.98
2022-09-10T04:42:35.937Z,0.77
2022-09-10T04:45:41.491Z,0.90
2022-09-10T04:48:44.162Z,0.60
2022-09-10T04:51:51.028Z,1.00
2022-09-10T04:54:55.799Z,0.70
2022-09-10T04:57:57.982Z,1.08
2022-09-10T05:01:00.485Z,0.95
2022-09-10T05:04:04.277Z,1.05
2022-09-10T05:07:08.352Z,0.88
2022-09-10T05:10:10.954Z,0.80
2022-09-10T05:13:14.017Z,0.82
2022-09-10T05:16:16.134Z,0.82
2022-09-10T05:19:19.001Z,0.80
2022-09-10T05:22:31.749Z,0.90
2022-09-10T05:25:39.426Z,0.80
2022-09-10T05:28:42.947Z,1.30
2022-09-10T05:31:48.940Z,0.90
2022-09-10T05:34:51.044Z,1.05
2022-09-10T05:37:53.631Z,1.10
2022-09-10T05:40:57.560Z,1.17
2022-09-10T05:44:00.567Z,0.93
2022-09-10T05:47:03.849Z,1.05
2022-09-10T05:50:07.144Z,0.60
2022-09-10T05:53:10.516Z,1.10
2022-09-10T05:56:13.479Z,0.63
2022-09-10T05:59:17.806Z,0.85
2022-09-10T06:02:26.677Z,1.00
2022-09-10T06:05:32.052Z,0.80
2022-09-10T06:08:36.760Z,0.80
2022-09-10T06:11:49.107Z,0.70
2022-09-10T06:14:53.540Z,0.90
2022-09-10T06:21:09.108Z,1.00
2022-09-10T06:24:12.307Z,0.82
2022-09-10T06:27:17.504Z,0.70
2022-09-10T06:30:21.108Z,0.70
2022-09-10T06:33:24.726Z,0.88
2022-09-10T06:36:28.803Z,1.67
2022-09-10T06:39:32.549Z,2.60
2022-09-10T06:42:36.349Z,3.67
2022-09-10T06:45:53.907Z,3.10
2022-09-10T06:49:18.936Z,2.13
2022-09-10T06:52:24.857Z,1.10
2022-09-10T06:55:35.811Z,4.43
2022-09-10T06:58:39.737Z,1.20
2022-09-10T07:01:42.671Z,2.65
2022-09-10T07:04:46.134Z,4.40
2022-09-10T07:07:48.356Z,3.88
2022-09-10T07:10:52.283Z,2.67
2022-09-10T07:13:55.168Z,7.18
2022-09-10T07:17:03.383Z,4.38
2022-09-10T07:20:07.916Z,2.13
2022-09-10T07:23:20.520Z,2.55
2022-09-10T07:26:25.956Z,1.25
2022-09-10T07:29:31.287Z,4.00
2022-09-10T07:32:35.718Z,4.40
2022-09-10T07:35:46.629Z,2.50
2022-09-10T07:38:55.039Z,2.78
2022-09-10T07:41:58.097Z,3.42
2022-09-10T07:45:06.131Z,4.95
2022-09-10T07:48:12.057Z,4.13
2022-09-10T07:51:19.368Z,5.70
2022-09-10T07:54:24.813Z,2.42
2022-09-10T07:57:31.431Z,5.30
2022-09-10T08:00:35.776Z,5.40
2022-09-10T08:03:42.229Z,2.17
2022-09-10T08:06:47.228Z,3.55
2022-09-10T08:09:50.205Z,2.55
2022-09-10T08:12:54.943Z,5.38
2022-09-10T08:15:58.669Z,7.05
2022-09-10T08:19:02.003Z,6.20
2022-09-10T08:22:10.246Z,6.45
2022-09-10T08:25:22.394Z,5.75
2022-09-10T08:28:27.477Z,6.65
2022-09-10T08:31:30.449Z,5.47
2022-09-10T08:34:42.238Z,6.13
2022-09-10T08:37:48.094Z,5.75
2022-09-10T08:40:52.660Z,3.90
2022-09-10T08:44:03.448Z,6.30
2022-09-10T08:47:11.917Z,4.15
2022-09-10T08:50:52.895Z,5.38
2022-09-10T08:54:06.319Z,3.50
2022-09-10T08:57:24.334Z,3.25
2022-09-10T09:00:34.034Z,6.13
2022-09-10T09:03:49.083Z,5.28
2022-09-10T09:06:57.557Z,5.35
2022-09-10T09:10:01.030Z,2.35
2022-09-10T09:13:27.154Z,3.55
2022-09-10T09:16:37.560Z,6.53
2022-09-10T09:19:40.897Z,5.03
2022-09-10T09:23:01.812Z,6.10
2022-09-10T09:26:14.560Z,4.30
2022-09-10T09:29:32.260Z,3.15
2022-09-10T09:32:41.614Z,4.50
2022-09-10T09:35:52.746Z,4.15
2022-09-10T09:38:56.546Z,6.07
2022-09-10T09:42:11.498Z,3.95
2022-09-10T09:45:25.109Z,4.68
2022-09-10T09:48:38.910Z,4.72
2022-09-10T09:51:43.949Z,4.13
2022-09-10T09:58:19.534Z,3.20
2022-09-10T10:01:24.359Z,3.67
2022-09-10T10:04:31.237Z,2.80
2022-09-10T10:07:36.345Z,3.22
2022-09-10T10:10:39.032Z,3.47
2022-09-10T10:13:44.120Z,5.90
2022-09-10T10:16:52.131Z,4.32
2022-09-10T10:19:59.355Z,4.25
2022-09-10T10:23:50.605Z,3.80
2022-09-10T10:26:53.250Z,4.22
2022-09-10T10:30:00.687Z,2.25
2022-09-10T10:33:03.822Z,3.63
2022-09-10T10:36:21.647Z,3.58
2022-09-10T10:39:40.667Z,2.72
2022-09-10T10:42:52.514Z,3.35
2022-09-10T10:46:15.016Z,3.70
2022-09-10T10:49:40.481Z,3.63
2022-09-10T10:52:58.965Z,2.88
2022-09-10T10:56:12.234Z,3.33
2022-09-10T11:00:02.354Z,2.23
2022-09-10T11:03:23.519Z,4.57
2022-09-10T11:06:32.161Z,3.28
2022-09-10T11:09:43.436Z,4.30
2022-09-10T11:12:50.705Z,3.85
2022-09-10T11:15:59.753Z,2.63
2022-09-10T11:19:12.062Z,2.30
2022-09-10T11:22:18.634Z,1.67
2022-09-10T11:25:29.187Z,3.35
2022-09-10T11:28:56.436Z,3.08
2022-09-10T11:32:13.232Z,1.38
2022-09-10T11:35:23.660Z,2.50
2022-09-10T11:38:26.771Z,2.85
2022-09-10T11:41:33.098Z,2.83
2022-09-10T11:45:05.254Z,2.83
2022-09-10T11:48:18.329Z,3.70
2022-09-10T11:51:32.472Z,3.67
2022-09-10T11:54:36.439Z,4.07
2022-09-10T11:58:00.050Z,3.75
2022-09-10T12:01:13.811Z,2.35
2022-09-10T12:04:48.136Z,3.17
2022-09-10T12:08:21.317Z,2.97
2022-09-10T12:11:36.067Z,4.45
2022-09-10T12:14:41.278Z,4.30
2022-09-10T12:17:47.151Z,2.22
2022-09-10T12:20:52.708Z,2.28
2022-09-10T12:23:57.988Z,2.92
2022-09-10T12:27:04.492Z,3.45
2022-09-10T12:30:37.125Z,1.55
2022-09-10T12:33:42.378Z,3.58
2022-09-10T12:36:44.717Z,1.83
2022-09-10T12:39:49.162Z,2.25
2022-09-10T12:46:26.102Z,1.92
2022-09-10T12:49:29.020Z,1.90
2022-09-10T12:52:37.325Z,1.88
2022-09-10T12:55:52.840Z,3.40
2022-09-10T12:59:04.786Z,3.38
2022-09-10T13:02:33.534Z,3.75
2022-09-10T13:05:53.038Z,3.33
2022-09-10T13:08:56.190Z,3.65
2022-09-10T13:12:04.846Z,4.13
2022-09-10T13:15:25.066Z,3.13
2022-09-10T13:18:34.237Z,2.53
2022-09-10T13:21:52.454Z,3.92
2022-09-10T13:25:25.485Z,4.50
2022-09-10T13:28:31.329Z,4.85
2022-09-10T13:31:36.509Z,3.75
2022-09-10T13:35:17.344Z,4.25
2022-09-10T13:38:45.051Z,3.90
2022-09-10T13:41:56.575Z,4.13
2022-09-10T13:45:27.626Z,3.05
2022-09-10T13:48:45.098Z,3.35
2022-09-10T13:51:55.495Z,3.20
2022-09-10T13:55:02.829Z,2.72
2022-09-10T13:58:19.226Z,3.67
2022-09-10T14:01:48.335Z,3.42
2022-09-10T14:04:52.840Z,2.85
2022-09-10T14:08:02.395Z,2.05
2022-09-10T14:11:14.896Z,1.40
2022-09-10T14:14:22.850Z,2.83
2022-09-10T14:17:39.981Z,2.08
2022-09-10T14:20:44.426Z,3.00
2022-09-10T14:23:49.404Z,2.58
2022-09-10T14:27:24.933Z,2.70
2022-09-10T14:36:37.257Z,3.13
2022-09-10T14:42:50.032Z,2.88
2022-09-10T14:45:53.364Z,2.70
2022-09-10T14:48:58.631Z,2.63
2022-09-10T14:52:05.558Z,3.08
2022-09-10T14:55:11.929Z,2.15
2022-09-10T14:58:17.409Z,1.55
2022-09-10T15:01:22.011Z,2.00
2022-09-10T15:04:27.538Z,2.10
2022-09-10T15:10:34.122Z,2.40
2022-09-10T15:13:41.874Z,3.30
2022-09-10T15:16:44.626Z,3.60
2022-09-10T15:19:50.354Z,4.25
2022-09-10T15:22:54.294Z,4.68
2022-09-10T15:25:59.786Z,4.07
2022-09-10T15:29:03.128Z,4.45
2022-09-10T15:32:05.682Z,3.60
2022-09-10T15:35:09.706Z,4.00
2022-09-10T15:38:16.622Z,3.15
2022-09-10T15:41:19.641Z,3.17
2022-09-10T15:44:25.077Z,3.72
2022-09-10T15:47:27.817Z,3.65
2022-09-10T15:50:31.835Z,2.90
2022-09-10T15:56:38.114Z,2.22
2022-09-10T15:59:40.857Z,3.00
2022-09-10T16:02:44.185Z,2.90
2022-09-10T16:05:46.730Z,2.97
2022-09-10T16:08:56.747Z,2.67
2022-09-10T16:12:01.119Z,2.45
2022-09-10T16:15:04.248Z,2.10
2022-09-10T16:18:07.294Z,2.33
2022-09-10T16:21:16.150Z,2.55
2022-09-10T16:24:19.556Z,3.03
2022-09-10T16:27:21.891Z,2.90
2022-09-10T16:30:25.302Z,3.03
2022-09-10T16:33:28.120Z,3.20
2022-09-10T16:36:33.396Z,2.35
2022-09-10T16:39:35.828Z,2.97
2022-09-10T16:42:38.102Z,2.88
2022-09-10T16:45:50.418Z,2.70
2022-09-10T16:48:54.957Z,2.38
2022-09-10T16:55:00.201Z,2.25
2022-09-10T16:58:04.606Z,2.95
2022-09-10T17:01:10.917Z,2.75
2022-09-10T17:04:22.486Z,3.00
2022-09-10T17:07:29.402Z,3.85
2022-09-10T17:10:33.433Z,3.42
2022-09-10T17:13:36.455Z,3.50
2022-09-10T17:16:41.398Z,3.53
2022-09-10T17:19:44.101Z,4.00
2022-09-10T17:22:46.785Z,3.70
2022-09-10T17:25:49.431Z,4.25
2022-09-10T17:28:53.936Z,3.80
2022-09-10T17:31:57.565Z,3.85
2022-09-10T17:35:00.251Z,4.18
2022-09-10T17:38:03.244Z,3.78
2022-09-10T17:41:07.067Z,4.10
2022-09-10T17:44:12.674Z,4.57
2022-09-10T17:47:16.034Z,4.63
2022-09-10T17:50:19.903Z,5.30
2022-09-10T17:53:23.174Z,5.43
2022-09-10T17:56:27.514Z,6.20
2022-09-10T17:59:30.487Z,5.75
2022-09-10T18:02:33.757Z,5.75
2022-09-10T18:05:39.985Z,6.50
2022-09-10T18:08:44.032Z,6.22
2022-09-10T18:11:48.244Z,6.07
2022-09-10T18:14:50.961Z,5.85
2022-09-10T18:18:01.962Z,5.85
2022-09-10T18:21:17.226Z,5.63
2022-09-10T18:24:25.325Z,2.95
2022-09-10T18:27:28.054Z,4.57
2022-09-10T18:30:30.618Z,5.80
2022-09-10T18:33:41.371Z,5.65
2022-09-10T18:36:45.009Z,6.30
2022-09-10T18:39:48.781Z,7.07
2022-09-10T18:42:51.124Z,6.50
2022-09-10T18:45:54.049Z,6.68
2022-09-10T18:48:58.113Z,8.13
2022-09-10T18:52:01.701Z,8.00
2022-09-10T18:55:04.655Z,8.10
2022-09-10T18:58:07.355Z,9.00
2022-09-10T19:01:12.123Z,8.00
2022-09-10T19:04:17.679Z,8.85
2022-09-10T19:07:21.525Z,8.55
2022-09-10T19:10:24.409Z,8.90
2022-09-10T19:13:27.429Z,9.65
2022-09-10T19:16:32.394Z,9.27
2022-09-10T19:19:36.740Z,9.95
2022-09-10T19:22:39.390Z,9.65
2022-09-10T19:25:50.804Z,9.43
2022-09-10T19:28:57.661Z,10.35
2022-09-10T19:32:01.220Z,10.30
2022-09-10T19:35:04.401Z,9.77
2022-09-10T19:38:21.311Z,12.38
2022-09-10T19:41:29.817Z,11.93
2022-09-10T19:44:33.707Z,11.82
2022-09-10T19:47:36.657Z,11.73
2022-09-10T19:50:40.404Z,9.90
2022-09-10T19:53:43.743Z,10.18
2022-09-10T19:56:46.638Z,10.98
2022-09-10T19:59:49.730Z,11.40
2022-09-10T20:02:52.107Z,11.43
2022-09-10T20:05:55.282Z,10.88
2022-09-10T20:08:57.903Z,12.73
2022-09-10T20:12:01.733Z,11.90
2022-09-10T20:15:05.030Z,10.85
2022-09-10T20:18:07.979Z,11.13
2022-09-10T20:21:20.843Z,12.32
2022-09-10T20:24:26.065Z,11.70
2022-09-10T20:27:29.480Z,11.43
2022-09-10T20:30:32.296Z,9.48
2022-09-10T20:33:36.934Z,9.90
2022-09-10T20:36:42.953Z,9.55
2022-09-10T20:39:51.304Z,10.77
2022-09-10T20:42:55.934Z,8.73
2022-09-10T20:45:58.463Z,10.80
2022-09-10T20:49:04.027Z,10.70
2022-09-10T20:55:35.310Z,9.57
2022-09-10T20:58:39.420Z,10.77
2022-09-10T21:01:44.545Z,10.50
2022-09-10T21:04:46.864Z,10.82
2022-09-10T21:07:51.804Z,10.73
2022-09-10T21:10:54.420Z,9.82
2022-09-10T21:14:01.740Z,11.03
2022-09-10T21:17:05.566Z,9.43
2022-09-10T21:20:08.476Z,9.85
2022-09-10T21:23:11.318Z,2.40
2022-09-10T21:26:18.002Z,7.97
2022-09-10T21:29:22.603Z,7.38
2022-09-10T21:32:26.052Z,8.23
2022-09-10T21:35:29.126Z,7.10
2022-09-10T21:38:31.523Z,8.02
2022-09-10T21:41:36.085Z,7.82
2022-09-10T21:44:38.747Z,6.18
2022-09-10T21:47:41.649Z,4.32
2022-09-10T21:50:44.812Z,4.03
2022-09-10T21:53:47.560Z,2.60
2022-09-10T21:56:51.406Z,2.27
2022-09-10T21:59:54.252Z,3.70
2022-09-10T22:02:57.700Z,2.60
2022-09-10T22:06:12.983Z,7.20
2022-09-10T22:09:16.876Z,8.40
2022-09-10T22:12:19.249Z,8.98
2022-09-10T22:15:21.962Z,9.25
2022-09-10T22:18:23.886Z,8.25
2022-09-10T22:21:27.101Z,6.90
2022-09-10T22:24:29.630Z,2.35
2022-09-10T22:27:32.621Z,5.50
2022-09-10T22:30:37.989Z,2.30
2022-09-10T22:33:44.321Z,8.65
2022-09-10T22:36:47.591Z,9.40
2022-09-10T22:39:50.617Z,7.43
2022-09-10T22:42:52.980Z,2.80
2022-09-10T22:45:55.810Z,4.32
2022-09-10T22:48:58.040Z,6.43
2022-09-10T22:52:00.213Z,8.07
2022-09-10T22:55:03.545Z,10.52
2022-09-10T22:58:07.393Z,12.02
2022-09-10T23:01:15.138Z,11.20
2022-09-10T23:04:17.806Z,5.68
2022-09-10T23:07:20.001Z,3.15
2022-09-10T23:10:23.497Z,4.50
2022-09-10T23:13:26.572Z,5.47
2022-09-10T23:16:35.414Z,3.67
2022-09-10T23:19:37.640Z,1.90
2022-09-10T23:22:41.127Z,5.47
2022-09-10T23:25:43.524Z,4.78
2022-09-10T23:28:46.838Z,5.05
2022-09-10T23:31:49.961Z,6.32
2022-09-10T23:34:53.586Z,7.38
2022-09-10T23:37:55.799Z,6.80
2022-09-10T23:41:03.253Z,8.73
2022-09-10T23:44:06.033Z,9.27
2022-09-10T23:47:08.652Z,9.05
2022-09-10T23:50:11.035Z,9.43
2022-09-10T23:53:13.235Z,9.10
2022-09-10T23:56:17.708Z,9.98
2022-09-10T23:59:20.438Z,10.13
